createdAt,value
2018-06-04T00:02:16.501Z,92.30
2018-06-04T00:04:45.760Z,92.30
2018-06-04T00:07:14.068Z,92.40
2018-06-04T00:09:42.388Z,92.50
2018-06-04T00:12:10.716Z,92.50
2018-06-04T00:14:39.071Z,92.50
2018-06-04T00:17:07.385Z,92.60
2018-06-04T00:19:35.732Z,92.60
2018-06-04T00:22:04.110Z,92.60
2018-06-04T00:24:32.449Z,92.60
2018-06-04T00:27:00.755Z,92.70
2018-06-04T00:29:29.116Z,92.80
2018-06-04T00:31:58.006Z,93.00
2018-06-04T00:34:26.285Z,92.70
2018-06-04T00:36:54.616Z,92.80
2018-06-04T00:39:22.914Z,92.80
2018-06-04T00:41:51.243Z,92.80
2018-06-04T00:44:19.546Z,92.90
2018-06-04T00:46:47.868Z,92.90
2018-06-04T00:49:16.197Z,93.00
2018-06-04T00:51:44.528Z,93.00
2018-06-04T00:54:12.825Z,93.00
2018-06-04T00:56:41.160Z,93.00
2018-06-04T00:59:09.492Z,93.10
2018-06-04T01:01:37.936Z,93.10
2018-06-04T01:04:06.260Z,93.10
2018-06-04T01:06:34.568Z,93.10
2018-06-04T01:09:03.039Z,93.10
2018-06-04T01:11:31.332Z,93.10
2018-06-04T01:13:59.684Z,93.20
2018-06-04T01:16:28.008Z,93.30
2018-06-04T01:18:56.309Z,93.40
2018-06-04T01:21:24.605Z,93.40
2018-06-04T01:23:52.935Z,93.40
2018-06-04T01:26:21.292Z,93.50
2018-06-04T01:28:49.640Z,93.50
2018-06-04T01:31:18.036Z,93.50
2018-06-04T01:33:46.318Z,93.50
2018-06-04T01:38:42.719Z,93.50
2018-06-04T01:41:11.044Z,93.50
2018-06-04T01:43:39.379Z,93.50
2018-06-04T01:46:07.685Z,93.50
2018-06-04T01:48:36.008Z,93.50
2018-06-04T01:51:04.348Z,93.50
2018-06-04T01:53:32.673Z,93.50
2018-06-04T01:56:01.104Z,93.50
2018-06-04T01:58:29.419Z,93.50
2018-06-04T02:00:57.765Z,93.50
2018-06-04T02:05:54.143Z,93.50
2018-06-04T02:08:22.528Z,93.50
2018-06-04T02:10:50.889Z,93.60
2018-06-04T02:13:19.188Z,93.50
2018-06-04T02:15:47.616Z,93.50
2018-06-04T02:18:15.916Z,93.40
2018-06-04T02:20:44.451Z,93.50
2018-06-04T02:23:12.805Z,93.40
2018-06-04T02:25:41.148Z,93.40
2018-06-04T02:28:09.537Z,93.40
2018-06-04T02:30:38.078Z,93.40
2018-06-04T02:33:06.484Z,93.40
2018-06-04T02:35:34.798Z,93.30
2018-06-04T02:38:03.125Z,93.30
2018-06-04T02:40:31.435Z,93.40
2018-06-04T02:42:59.827Z,93.40
2018-06-04T02:45:28.189Z,93.40
2018-06-04T02:47:56.790Z,93.30
2018-06-04T02:50:25.111Z,93.30
2018-06-04T02:53:00.015Z,93.30
2018-06-04T02:55:28.345Z,93.40
2018-06-04T02:57:56.704Z,93.30
2018-06-04T03:00:25.040Z,93.30
2018-06-04T03:02:53.381Z,93.30
2018-06-04T03:07:49.745Z,93.30
2018-06-04T03:10:18.063Z,93.20
2018-06-04T03:12:46.392Z,93.30
2018-06-04T03:15:14.715Z,93.30
2018-06-04T03:17:43.042Z,93.20
2018-06-04T03:20:11.334Z,93.20
2018-06-04T03:22:39.664Z,93.20
2018-06-04T03:25:07.980Z,93.20
2018-06-04T03:27:36.288Z,93.20
2018-06-04T03:30:04.697Z,93.30
2018-06-04T03:32:32.996Z,93.20
2018-06-04T03:35:01.324Z,93.20
2018-06-04T03:37:29.611Z,93.20
2018-06-04T03:39:57.924Z,93.20
2018-06-04T03:44:54.280Z,93.20
2018-06-04T03:47:22.608Z,93.20
2018-06-04T03:49:50.927Z,93.20
2018-06-04T03:52:19.248Z,93.20
2018-06-04T03:54:47.572Z,93.10
2018-06-04T03:57:15.896Z,93.10
2018-06-04T03:59:44.220Z,93.00
2018-06-04T04:02:12.696Z,93.00
2018-06-04T04:04:40.999Z,93.00
2018-06-04T04:07:09.300Z,92.90
2018-06-04T04:09:37.608Z,92.90
2018-06-04T04:12:05.960Z,92.80
2018-06-04T04:14:35.136Z,92.80
2018-06-04T04:17:03.428Z,92.70
2018-06-04T04:19:31.736Z,92.70
2018-06-04T04:22:00.060Z,92.60
2018-06-04T04:24:28.505Z,92.50
2018-06-04T04:26:56.822Z,92.50
2018-06-04T04:31:53.331Z,92.50
2018-06-04T04:34:21.650Z,92.50
2018-06-04T04:36:49.978Z,92.40
2018-06-04T04:39:18.405Z,92.40
2018-06-04T04:41:46.751Z,92.40
2018-06-04T04:44:15.060Z,92.40
2018-06-04T04:46:43.442Z,92.30
2018-06-04T04:49:11.688Z,92.30
2018-06-04T04:51:40.078Z,92.30
2018-06-04T04:54:08.439Z,92.40
2018-06-04T04:56:36.748Z,92.30
2018-06-04T04:59:05.174Z,92.30
2018-06-04T05:01:33.490Z,92.30
2018-06-04T05:04:01.813Z,92.20
2018-06-04T05:06:30.128Z,92.20
2018-06-04T05:08:58.776Z,92.20
2018-06-04T05:11:27.179Z,92.20
2018-06-04T05:13:55.556Z,92.20
2018-06-04T05:16:23.902Z,92.10
2018-06-04T05:18:52.310Z,92.00
2018-06-04T05:21:20.610Z,91.90
2018-06-04T05:23:49.409Z,91.80
2018-06-04T05:26:17.740Z,91.90
2018-06-04T05:28:46.076Z,91.80
2018-06-04T05:31:14.470Z,91.80
2018-06-04T05:33:42.760Z,91.80
2018-06-04T05:36:11.122Z,91.70
2018-06-04T05:38:39.404Z,92.00
2018-06-04T05:41:07.724Z,91.60
2018-06-04T05:43:36.076Z,91.60
2018-06-04T05:46:04.441Z,91.70
2018-06-04T05:48:32.825Z,91.70
2018-06-04T05:51:01.299Z,91.70
2018-06-04T05:53:29.600Z,91.60
2018-06-04T05:55:58.001Z,91.60
2018-06-04T05:58:26.320Z,91.60
2018-06-04T06:00:54.649Z,91.60
2018-06-04T06:03:22.994Z,91.50
2018-06-04T06:05:51.292Z,91.60
2018-06-04T06:08:19.599Z,91.60
2018-06-04T06:10:47.920Z,91.60
2018-06-04T06:13:16.247Z,91.50
2018-06-04T06:15:44.569Z,91.50
2018-06-04T06:18:12.860Z,91.40
2018-06-04T06:20:41.189Z,91.40
2018-06-04T06:23:09.729Z,91.40
2018-06-04T06:25:38.088Z,91.40
2018-06-04T06:28:06.436Z,91.40
2018-06-04T06:30:34.740Z,91.40
2018-06-04T06:33:03.069Z,91.40
2018-06-04T06:35:31.377Z,91.40
2018-06-04T06:37:59.727Z,91.40
2018-06-04T06:40:28.352Z,91.40
2018-06-04T06:42:56.696Z,91.30
2018-06-04T06:45:25.011Z,91.30
2018-06-04T06:47:53.353Z,91.30
2018-06-04T06:50:21.644Z,91.30
2018-06-04T06:52:49.968Z,91.30
2018-06-04T06:55:18.282Z,91.40
2018-06-04T06:57:46.595Z,91.40
2018-06-04T07:00:14.891Z,91.30
2018-06-04T07:02:43.520Z,91.30
2018-06-04T07:05:12.024Z,91.30
2018-06-04T07:07:40.384Z,91.30
2018-06-04T07:10:08.707Z,91.30
2018-06-04T07:12:37.019Z,91.40
2018-06-04T07:15:05.380Z,91.40
2018-06-04T07:17:33.692Z,91.50
2018-06-04T07:20:02.086Z,91.50
2018-06-04T07:22:30.400Z,91.40
2018-06-04T07:24:58.743Z,91.40
2018-06-04T07:27:27.119Z,91.50
2018-06-04T07:29:55.521Z,91.40
2018-06-04T07:32:23.885Z,91.40
2018-06-04T07:34:52.191Z,91.50
2018-06-04T07:37:20.496Z,91.60
2018-06-04T07:39:48.869Z,91.40
2018-06-04T07:42:17.229Z,91.40
2018-06-04T07:44:45.580Z,91.30
2018-06-04T07:47:13.985Z,91.20
2018-06-04T07:49:42.368Z,90.90
2018-06-04T07:52:10.658Z,90.80
2018-06-04T07:54:38.986Z,90.70
2018-06-04T07:57:07.289Z,90.50
2018-06-04T07:59:35.593Z,90.40
2018-06-04T08:02:04.019Z,90.40
2018-06-04T08:04:32.340Z,90.40
2018-06-04T08:07:00.801Z,90.20
2018-06-04T08:09:29.105Z,90.20
2018-06-04T08:11:57.385Z,90.20
2018-06-04T08:14:25.897Z,90.10
2018-06-04T08:16:54.709Z,90.00
2018-06-04T08:19:23.004Z,89.80
2018-06-04T08:21:51.298Z,89.50
2018-06-04T08:24:19.664Z,89.50
2018-06-04T08:26:48.231Z,89.40
2018-06-04T08:29:16.580Z,89.20
2018-06-04T08:31:44.989Z,88.90
2018-06-04T08:34:13.311Z,89.10
2018-06-04T08:36:41.703Z,88.70
2018-06-04T08:39:10.039Z,88.70
2018-06-04T08:41:38.361Z,88.70
2018-06-04T08:44:06.659Z,88.60
2018-06-04T08:46:35.024Z,88.50
2018-06-04T08:49:03.340Z,88.40
2018-06-04T08:51:31.657Z,88.50
2018-06-04T08:54:00.048Z,88.50
2018-06-04T08:56:28.384Z,89.20
2018-06-04T08:58:56.721Z,89.00
2018-06-04T09:01:25.045Z,89.00
2018-06-04T09:03:53.396Z,88.90
2018-06-04T09:06:21.687Z,88.70
2018-06-04T09:08:50.150Z,88.60
2018-06-04T09:11:18.524Z,88.20
2018-06-04T09:13:46.897Z,88.50
2018-06-04T09:16:15.605Z,88.40
2018-06-04T09:18:43.949Z,88.60
2018-06-04T09:21:12.362Z,88.60
2018-06-04T09:23:40.729Z,88.60
2018-06-04T09:26:09.108Z,88.30
2018-06-04T09:28:37.459Z,88.20
2018-06-04T09:31:05.848Z,88.00
2018-06-04T09:33:36.231Z,87.70
2018-06-04T09:36:04.752Z,87.90
2018-06-04T09:38:33.288Z,87.90
2018-06-04T09:41:01.671Z,87.60
2018-06-04T09:45:58.128Z,87.70
2018-06-04T09:48:27.120Z,87.50
2018-06-04T09:50:55.489Z,87.70
2018-06-04T09:53:23.836Z,87.30
2018-06-04T09:55:52.565Z,87.50
2018-06-04T09:58:22.033Z,87.40
2018-06-04T10:00:50.347Z,87.00
2018-06-04T10:03:18.700Z,86.70
2018-06-04T10:05:47.088Z,86.30
2018-06-04T10:08:15.371Z,86.30
2018-06-04T10:10:43.677Z,86.40
2018-06-04T10:13:12.008Z,86.20
2018-06-04T10:15:40.365Z,86.00
2018-06-04T10:18:08.648Z,85.60
2018-06-04T10:20:36.952Z,85.70
2018-06-04T10:23:05.320Z,85.90
2018-06-04T10:25:33.660Z,86.10
2018-06-04T10:28:01.989Z,86.30
2018-06-04T10:30:36.981Z,86.40
2018-06-04T10:33:05.330Z,86.50
2018-06-04T10:35:33.621Z,86.60
2018-06-04T10:38:02.007Z,87.00
2018-06-04T10:42:58.523Z,86.20
2018-06-04T10:45:26.868Z,86.10
2018-06-04T10:47:55.172Z,86.10
2018-06-04T10:50:23.531Z,86.00
2018-06-04T10:52:51.856Z,86.20
2018-06-04T10:55:20.179Z,86.30
2018-06-04T10:57:48.544Z,86.10
2018-06-04T11:00:16.913Z,86.10
2018-06-04T11:02:45.516Z,85.90
2018-06-04T11:05:13.842Z,86.00
2018-06-04T11:07:42.259Z,86.00
2018-06-04T11:10:10.607Z,86.80
2018-06-04T11:12:38.884Z,86.20
2018-06-04T11:15:07.364Z,86.50
2018-06-04T11:17:35.688Z,86.50
2018-06-04T11:20:04.009Z,86.50
2018-06-04T11:22:32.352Z,86.60
2018-06-04T11:25:00.779Z,86.70
2018-06-04T11:27:29.116Z,86.60
2018-06-04T11:29:57.399Z,86.70
2018-06-04T11:32:25.701Z,86.70
2018-06-04T11:34:54.061Z,86.80
2018-06-04T11:37:22.416Z,86.60
2018-06-04T11:39:50.724Z,86.50
2018-06-04T11:42:19.144Z,86.50
2018-06-04T11:44:47.485Z,86.60
2018-06-04T11:47:15.821Z,86.50
2018-06-04T11:49:44.169Z,86.50
2018-06-04T11:52:12.561Z,86.50
2018-06-04T11:54:40.954Z,86.60
2018-06-04T11:57:09.334Z,86.60
2018-06-04T11:59:37.692Z,86.30
2018-06-04T12:02:06.046Z,86.00
2018-06-04T12:04:34.352Z,85.60
2018-06-04T12:07:02.706Z,85.20
2018-06-04T12:09:31.377Z,85.00
2018-06-04T12:11:59.799Z,85.20
2018-06-04T12:14:28.108Z,84.90
2018-06-04T12:16:56.428Z,85.10
2018-06-04T12:19:24.900Z,85.10
2018-06-04T12:21:53.207Z,85.70
2018-06-04T12:24:21.535Z,84.90
2018-06-04T12:26:50.031Z,84.90
2018-06-04T12:29:18.540Z,85.00
2018-06-04T12:31:47.001Z,84.90
2018-06-04T12:34:15.460Z,84.90
2018-06-04T12:36:43.784Z,85.00
2018-06-04T12:39:12.093Z,84.80
2018-06-04T12:41:40.449Z,84.90
2018-06-04T12:44:08.813Z,84.80
2018-06-04T12:46:37.321Z,85.00
2018-06-04T12:49:05.634Z,84.70
2018-06-04T12:51:34.113Z,84.50
2018-06-04T12:54:02.436Z,84.50
2018-06-04T12:56:30.768Z,84.70
2018-06-04T12:58:59.056Z,84.80
2018-06-04T13:01:27.364Z,85.00
2018-06-04T13:03:55.700Z,84.90
2018-06-04T13:06:24.085Z,84.60
2018-06-04T13:08:52.484Z,84.50
2018-06-04T13:11:20.814Z,84.60
2018-06-04T13:13:49.148Z,84.80
2018-06-04T13:16:17.558Z,84.70
2018-06-04T13:18:46.324Z,84.80
2018-06-04T13:21:14.628Z,84.60
2018-06-04T13:23:42.948Z,84.60
2018-06-04T13:26:11.368Z,84.60
2018-06-04T13:28:39.701Z,84.40
2018-06-04T13:31:08.080Z,84.50
2018-06-04T13:33:36.453Z,84.20
2018-06-04T13:36:04.885Z,84.20
2018-06-04T13:38:33.240Z,84.20
2018-06-04T13:41:01.555Z,84.30
2018-06-04T13:43:29.899Z,84.30
2018-06-04T13:45:58.221Z,84.50
2018-06-04T13:48:26.520Z,84.60
2018-06-04T13:50:54.823Z,84.70
2018-06-04T13:53:23.132Z,84.50
2018-06-04T13:55:51.587Z,84.70
2018-06-04T13:58:19.927Z,84.80
2018-06-04T14:00:48.224Z,84.90
2018-06-04T14:03:16.545Z,85.70
2018-06-04T14:05:44.876Z,84.90
2018-06-04T14:08:13.196Z,85.20
2018-06-04T14:10:41.484Z,84.80
2018-06-04T14:15:37.879Z,84.60
2018-06-04T14:18:06.173Z,84.40
2018-06-04T14:20:34.558Z,84.60
2018-06-04T14:23:02.935Z,84.20
2018-06-04T14:25:31.384Z,84.20
2018-06-04T14:30:27.815Z,84.30
2018-06-04T14:32:56.199Z,84.20
2018-06-04T14:35:24.573Z,84.20
2018-06-04T14:37:52.884Z,84.20
2018-06-04T14:40:21.245Z,84.50
2018-06-04T14:42:49.536Z,84.60
2018-06-04T14:45:17.872Z,84.30
2018-06-04T14:47:46.192Z,84.20
2018-06-04T14:50:14.606Z,84.50
2018-06-04T14:52:42.940Z,84.00
2018-06-04T14:55:11.266Z,83.30
2018-06-04T14:57:39.628Z,83.10
2018-06-04T15:00:07.930Z,83.10
2018-06-04T15:02:36.352Z,83.30
2018-06-04T15:05:04.683Z,83.40
2018-06-04T15:07:32.996Z,83.20
2018-06-04T15:10:01.398Z,83.20
2018-06-04T15:12:29.663Z,82.80
2018-06-04T15:14:57.999Z,82.80
2018-06-04T15:17:26.466Z,82.80
2018-06-04T15:19:54.847Z,82.60
2018-06-04T15:22:23.180Z,82.40
2018-06-04T15:24:51.636Z,82.60
2018-06-04T15:27:19.987Z,82.50
2018-06-04T15:29:48.336Z,82.50
2018-06-04T15:32:16.824Z,82.70
2018-06-04T15:34:45.152Z,82.90
2018-06-04T15:37:13.439Z,82.50
2018-06-04T15:42:09.887Z,82.40
2018-06-04T15:44:38.227Z,82.60
2018-06-04T15:47:06.547Z,82.60
2018-06-04T15:49:34.840Z,82.50
2018-06-04T15:52:03.184Z,82.10
2018-06-04T15:54:31.522Z,81.90
2018-06-04T15:56:59.859Z,81.60
2018-06-04T15:59:28.169Z,81.10
2018-06-04T16:01:56.472Z,81.20
2018-06-04T16:04:24.776Z,81.30
2018-06-04T16:06:53.152Z,81.10
2018-06-04T16:09:21.447Z,80.40
2018-06-04T16:11:49.759Z,80.30
2018-06-04T16:14:18.080Z,80.30
2018-06-04T16:16:46.441Z,80.30
2018-06-04T16:19:14.842Z,80.70
2018-06-04T16:21:43.228Z,80.50
2018-06-04T16:24:11.660Z,80.70
2018-06-04T16:26:39.960Z,81.70
2018-06-04T16:29:08.296Z,80.90
2018-06-04T16:31:36.628Z,81.90
2018-06-04T16:34:05.107Z,81.00
2018-06-04T16:36:33.396Z,81.10
2018-06-04T16:39:19.460Z,81.00
2018-06-04T16:41:48.636Z,80.90
2018-06-04T16:44:16.943Z,80.80
2018-06-04T16:46:45.371Z,81.10
2018-06-04T16:49:13.691Z,81.30
2018-06-04T16:51:42.452Z,81.20
2018-06-04T16:54:11.013Z,81.40
2018-06-04T16:56:39.393Z,81.50
2018-06-04T16:59:07.728Z,81.70
2018-06-04T17:01:36.076Z,81.60
2018-06-04T17:04:04.388Z,81.50
2018-06-04T17:06:32.724Z,81.70
2018-06-04T17:09:01.380Z,81.80
2018-06-04T17:11:29.684Z,81.90
2018-06-04T17:13:58.079Z,81.90
2018-06-04T17:16:26.384Z,81.90
2018-06-04T17:18:54.675Z,81.80
2018-06-04T17:21:22.998Z,81.80
2018-06-04T17:23:51.519Z,82.00
2018-06-04T17:26:19.818Z,82.00
2018-06-04T17:31:16.193Z,82.40
2018-06-04T17:33:44.514Z,82.40
2018-06-04T17:36:12.812Z,82.40
2018-06-04T17:38:41.303Z,82.40
2018-06-04T17:43:37.771Z,82.70
2018-06-04T17:46:06.111Z,82.70
2018-06-04T17:48:34.449Z,83.00
2018-06-04T17:51:02.788Z,83.00
2018-06-04T17:53:31.104Z,83.20
2018-06-04T17:55:59.423Z,83.40
2018-06-04T17:58:27.748Z,83.50
2018-06-04T18:00:56.136Z,83.30
2018-06-04T18:03:24.641Z,83.30
2018-06-04T18:05:52.947Z,83.50
2018-06-04T18:08:21.315Z,83.50
2018-06-04T18:10:49.764Z,83.70
2018-06-04T18:13:18.070Z,83.70
2018-06-04T18:15:46.448Z,83.70
2018-06-04T18:18:14.768Z,83.80
2018-06-04T18:20:43.064Z,83.80
2018-06-04T18:23:11.409Z,83.70
2018-06-04T18:28:07.736Z,83.70
2018-06-04T18:30:36.080Z,83.90
2018-06-04T18:33:04.891Z,84.00
2018-06-04T18:35:33.180Z,83.60
2018-06-04T18:38:01.552Z,83.60
2018-06-04T18:40:29.886Z,83.60
2018-06-04T18:42:58.223Z,83.60
2018-06-04T18:45:26.584Z,83.70
2018-06-04T18:47:54.931Z,83.60
2018-06-04T18:50:23.223Z,83.80
2018-06-04T18:52:51.611Z,83.80
2018-06-04T18:57:48.179Z,84.00
2018-06-04T19:00:16.539Z,83.90
2018-06-04T19:02:45.001Z,83.90
2018-06-04T19:05:13.327Z,83.80
2018-06-04T19:07:41.628Z,84.00
2018-06-04T19:10:09.921Z,84.20
2018-06-04T19:12:38.252Z,84.20
2018-06-04T19:15:06.680Z,84.20
2018-06-04T19:17:35.004Z,84.20
2018-06-04T19:20:03.363Z,84.20
2018-06-04T19:22:31.715Z,84.10
2018-06-04T19:25:00.015Z,84.20
2018-06-04T19:27:28.358Z,84.20
2018-06-04T19:29:56.715Z,84.30
2018-06-04T19:32:25.038Z,84.50
2018-06-04T19:34:53.347Z,84.50
2018-06-04T19:37:21.687Z,84.50
2018-06-04T19:39:50.035Z,84.50
2018-06-04T19:42:18.391Z,84.60
2018-06-04T19:44:47.476Z,84.60
2018-06-04T19:47:15.768Z,84.70
2018-06-04T19:52:12.168Z,84.40
2018-06-04T19:54:40.483Z,84.40
2018-06-04T19:57:08.840Z,84.60
2018-06-04T19:59:37.256Z,84.50
2018-06-04T20:02:05.668Z,84.60
2018-06-04T20:04:33.981Z,84.80
2018-06-04T20:07:02.294Z,84.80
2018-06-04T20:09:30.682Z,85.50
2018-06-04T20:11:59.152Z,85.00
2018-06-04T20:14:27.483Z,85.00
2018-06-04T20:16:55.820Z,85.90
2018-06-04T20:19:24.148Z,85.20
2018-06-04T20:21:52.512Z,85.40
2018-06-04T20:24:20.924Z,85.50
2018-06-04T20:26:49.303Z,85.70
2018-06-04T20:29:17.618Z,85.60
2018-06-04T20:31:46.043Z,85.60
2018-06-04T20:34:14.320Z,85.60
2018-06-04T20:36:42.616Z,85.70
2018-06-04T20:39:10.954Z,85.70
2018-06-04T20:41:39.277Z,85.90
2018-06-04T20:44:07.664Z,86.00
2018-06-04T20:46:35.984Z,86.20
2018-06-04T20:49:04.352Z,86.40
2018-06-04T20:51:32.687Z,86.30
2018-06-04T20:54:00.992Z,86.30
2018-06-04T20:56:29.323Z,86.40
2018-06-04T20:58:57.619Z,86.40
2018-06-04T21:01:26.007Z,86.40
2018-06-04T21:03:54.324Z,86.40
2018-06-04T21:06:22.652Z,86.50
2018-06-04T21:08:51.030Z,86.90
2018-06-04T21:11:19.369Z,87.00
2018-06-04T21:13:47.668Z,87.00
2018-06-04T21:16:15.993Z,86.90
2018-06-04T21:18:44.352Z,87.10
2018-06-04T21:21:12.662Z,87.10
2018-06-04T21:23:40.963Z,87.10
2018-06-04T21:26:09.274Z,87.20
2018-06-04T21:28:37.615Z,87.20
2018-06-04T21:31:05.924Z,87.20
2018-06-04T21:33:34.275Z,87.30
2018-06-04T21:36:02.667Z,87.30
2018-06-04T21:40:59.009Z,87.40
2018-06-04T21:43:27.306Z,87.40
2018-06-04T21:45:55.652Z,87.40
2018-06-04T21:48:23.974Z,87.30
2018-06-04T21:50:52.274Z,87.30
2018-06-04T21:53:20.579Z,87.40
2018-06-04T21:55:48.904Z,87.50
2018-06-04T21:58:17.244Z,87.50
2018-06-04T22:00:45.610Z,87.50
2018-06-04T22:03:13.928Z,87.50
2018-06-04T22:05:42.252Z,87.50
2018-06-04T22:08:10.568Z,88.20
2018-06-04T22:10:39.023Z,87.70
2018-06-04T22:13:07.380Z,87.80
2018-06-04T22:15:35.669Z,87.80
2018-06-04T22:18:04.056Z,87.70
2018-06-04T22:20:32.337Z,87.60
2018-06-04T22:23:00.787Z,87.50
2018-06-04T22:25:29.108Z,87.20
2018-06-04T22:27:57.396Z,87.10
2018-06-04T22:30:25.700Z,87.20
2018-06-04T22:35:22.084Z,87.10
2018-06-04T22:37:50.428Z,87.00
2018-06-04T22:45:14.859Z,86.90
2018-06-04T22:47:43.218Z,87.00
2018-06-04T22:50:11.537Z,86.90
2018-06-04T22:52:39.887Z,87.10
2018-06-04T22:55:08.840Z,87.20
2018-06-04T22:57:37.159Z,87.20
2018-06-04T23:00:05.504Z,87.30
2018-06-04T23:02:35.449Z,87.40
2018-06-04T23:05:03.868Z,87.40
2018-06-04T23:07:32.204Z,87.40
2018-06-04T23:10:00.514Z,87.60
2018-06-04T23:12:28.810Z,87.70
2018-06-04T23:14:57.172Z,87.60
2018-06-04T23:17:25.487Z,87.60
2018-06-04T23:19:53.793Z,87.40
2018-06-04T23:22:22.692Z,87.40
2018-06-04T23:24:51.010Z,87.30
2018-06-04T23:27:19.336Z,87.30
2018-06-04T23:34:43.895Z,87.30
2018-06-04T23:37:12.208Z,87.40
2018-06-04T23:39:40.537Z,87.30
2018-06-04T23:42:08.840Z,88.10
2018-06-04T23:44:37.130Z,87.40
2018-06-04T23:47:05.447Z,87.60
2018-06-04T23:49:33.790Z,87.50
2018-06-04T23:52:02.172Z,87.70
2018-06-04T23:54:30.490Z,87.80
2018-06-04T23:56:58.812Z,87.90
2018-06-04T23:59:27.172Z,88.00
